MPL weather

Montpellier-Méditerranée Airport
Montpellier/Méditerranée, Languedoc-Roussillon, France

Public forecast

Using degrees Celsius for public forecast. Weather courtesy of forecast.io.

METAR (pilot weather report)

Retrieved 2019/09/17 17:30 UTC (25 minutes ago):

LFMT 171730Z AUTO 22008KT CAVOK 24/17 Q1012 NOSIG

TAF (pilot weather forecast)

Retrieved 2019/09/17 15:21 UTC (3 hours ago):

TAF LFMT 171400Z 1715/1815 20010KT CAVOK BECMG 1718/1721 VRB03KT PROB40 TEMPO 1803/1806 4000 BR BKN010 BECMG 1806/1809 CAVOK BECMG 1812/1815 18010KT